createdAt,value
2019-02-07T00:01:54.724Z,47.84
2019-02-07T00:06:58.201Z,47.87
2019-02-07T00:12:02.132Z,47.81
2019-02-07T00:17:05.615Z,47.81
2019-02-07T00:22:09.262Z,47.83
2019-02-07T00:27:12.735Z,47.81
2019-02-07T00:32:16.205Z,47.79
2019-02-07T00:37:20.058Z,47.85
2019-02-07T00:42:23.530Z,47.85
2019-02-07T00:47:27.002Z,47.83
2019-02-07T00:52:30.481Z,47.85
2019-02-07T00:57:33.956Z,47.86
2019-02-07T01:02:37.596Z,47.81
2019-02-07T01:07:41.140Z,47.81
2019-02-07T01:12:44.682Z,47.80
2019-02-07T01:17:48.154Z,47.83
2019-02-07T01:22:51.626Z,47.80
2019-02-07T01:27:55.735Z,47.82
2019-02-07T01:32:59.266Z,47.80
2019-02-07T01:38:02.827Z,47.80
2019-02-07T01:43:06.326Z,47.79
2019-02-07T01:48:09.797Z,47.80
2019-02-07T01:53:13.282Z,47.80
2019-02-07T01:58:16.764Z,47.82
2019-02-07T02:03:20.239Z,47.82
2019-02-07T02:08:23.725Z,47.81
2019-02-07T02:13:27.220Z,47.82
2019-02-07T02:18:30.676Z,47.76
2019-02-07T02:23:34.144Z,47.80
2019-02-07T02:28:37.700Z,47.80
2019-02-07T02:33:41.181Z,47.77
2019-02-07T02:38:44.655Z,47.77
2019-02-07T02:43:48.302Z,47.75
2019-02-07T02:48:51.770Z,47.78
2019-02-07T02:53:56.886Z,47.80
2019-02-07T02:59:00.364Z,47.78
2019-02-07T03:04:05.473Z,47.76
2019-02-07T03:09:13.831Z,47.77
2019-02-07T03:14:18.937Z,47.75
2019-02-07T03:19:32.779Z,47.77
2019-02-07T03:24:46.783Z,47.74
2019-02-07T03:30:08.410Z,47.73
2019-02-07T03:35:29.658Z,47.71
2019-02-07T03:40:43.718Z,47.73
2019-02-07T03:46:02.081Z,47.73
2019-02-07T03:50:58.603Z,47.77
2019-02-07T03:56:12.774Z,47.76
2019-02-07T04:01:33.313Z,47.75
2019-02-07T04:06:41.427Z,47.73
2019-02-07T04:11:46.562Z,47.74
2019-02-07T04:16:51.670Z,47.73
2019-02-07T04:21:56.780Z,47.71
2019-02-07T04:27:10.966Z,47.74
2019-02-07T04:32:25.129Z,47.71
2019-02-07T04:37:30.230Z,47.70
2019-02-07T04:42:41.632Z,47.71
2019-02-07T04:48:02.561Z,47.71
2019-02-07T04:53:16.816Z,47.67
2019-02-07T04:58:30.906Z,47.67
2019-02-07T05:03:41.728Z,47.71
2019-02-07T05:08:52.836Z,47.75
2019-02-07T05:14:00.645Z,47.76
2019-02-07T05:19:08.893Z,47.74
2019-02-07T05:24:30.449Z,47.76
2019-02-07T05:29:35.561Z,47.73
2019-02-07T05:34:40.681Z,47.73
2019-02-07T05:39:51.279Z,47.74
2019-02-07T05:44:56.395Z,47.73
2019-02-07T05:50:10.501Z,47.71
2019-02-07T05:55:24.613Z,47.70
2019-02-07T06:00:32.620Z,47.70
2019-02-07T06:05:37.734Z,47.67
2019-02-07T06:10:51.689Z,47.64
2019-02-07T06:15:57.105Z,47.67
2019-02-07T06:21:02.214Z,47.62
2019-02-07T06:26:12.819Z,47.60
2019-02-07T06:31:17.939Z,47.58
2019-02-07T06:36:23.050Z,47.56
2019-02-07T06:41:40.124Z,47.53
2019-02-07T06:46:45.253Z,47.54
2019-02-07T06:51:59.191Z,47.52
2019-02-07T06:57:04.301Z,47.49
2019-02-07T07:02:12.074Z,47.48
2019-02-07T07:07:35.217Z,47.46
2019-02-07T07:12:55.145Z,47.45
2019-02-07T07:18:02.964Z,47.43
2019-02-07T07:23:20.009Z,47.46
2019-02-07T07:28:25.137Z,47.42
2019-02-07T07:33:48.369Z,47.41
2019-02-07T07:39:11.497Z,47.38
2019-02-07T07:44:22.095Z,47.34
2019-02-07T07:49:27.207Z,47.31
2019-02-07T07:54:32.318Z,47.30
2019-02-07T07:59:53.792Z,47.28
2019-02-07T08:04:58.904Z,47.29
2019-02-07T08:10:04.014Z,47.27
2019-02-07T08:15:12.428Z,40.08
2019-02-07T08:20:17.780Z,28.74
2019-02-07T08:25:31.960Z,24.58
2019-02-07T08:30:53.217Z,26.52
2019-02-07T08:36:10.708Z,31.33
2019-02-07T08:41:30.643Z,34.91
2019-02-07T08:46:41.368Z,36.41
2019-02-07T08:52:04.913Z,37.56
2019-02-07T08:57:25.391Z,38.24
2019-02-07T09:02:33.127Z,39.26
2019-02-07T09:07:38.241Z,40.31
2019-02-07T09:12:46.808Z,40.76
2019-02-07T09:18:11.446Z,40.98
2019-02-07T09:23:31.660Z,41.25
2019-02-07T09:28:53.013Z,41.43
2019-02-07T09:34:16.325Z,41.63
2019-02-07T09:39:37.604Z,41.82
2019-02-07T09:44:42.720Z,42.06
2019-02-07T09:49:56.638Z,42.20
2019-02-07T09:55:18.017Z,42.36
2019-02-07T10:00:34.926Z,42.54
2019-02-07T10:05:54.949Z,42.70
2019-02-07T10:11:03.016Z,42.81
2019-02-07T10:16:11.110Z,42.92
2019-02-07T10:21:18.905Z,43.01
2019-02-07T10:26:29.866Z,43.44
2019-02-07T10:31:51.513Z,43.79
2019-02-07T10:37:12.859Z,44.20
2019-02-07T10:42:23.769Z,45.06
2019-02-07T10:47:30.515Z,45.16
2019-02-07T10:52:35.723Z,45.60
2019-02-07T10:57:56.744Z,45.10
2019-02-07T11:03:04.800Z,44.17
2019-02-07T11:08:09.909Z,43.50
2019-02-07T11:13:27.219Z,43.21
2019-02-07T11:18:55.325Z,43.33
2019-02-07T11:24:11.610Z,43.48
2019-02-07T11:29:16.932Z,43.59
2019-02-07T11:34:22.035Z,43.69
2019-02-07T11:39:43.354Z,43.77
2019-02-07T11:44:51.141Z,43.87
2019-02-07T11:49:56.629Z,43.91
2019-02-07T11:55:04.516Z,44.00
2019-02-07T12:00:18.231Z,44.06
2019-02-07T12:05:29.392Z,44.13
2019-02-07T12:10:40.464Z,44.20
2019-02-07T12:15:45.574Z,44.94
2019-02-07T12:20:53.709Z,45.89
2019-02-07T12:25:58.838Z,45.84
2019-02-07T12:31:09.990Z,46.26
2019-02-07T12:36:31.262Z,46.32
2019-02-07T12:41:42.114Z,46.13
2019-02-07T12:46:47.252Z,46.36
2019-02-07T12:51:55.332Z,46.56
2019-02-07T12:57:09.396Z,46.81
2019-02-07T13:02:26.848Z,46.83
2019-02-07T13:07:32.026Z,46.81
2019-02-07T13:12:52.366Z,46.69
2019-02-07T13:17:59.983Z,46.71
2019-02-07T13:23:07.674Z,46.71
2019-02-07T13:28:25.109Z,46.49
2019-02-07T13:33:39.193Z,46.49
2019-02-07T13:39:00.651Z,46.71
2019-02-07T13:44:06.334Z,46.99
2019-02-07T13:49:20.689Z,47.02
2019-02-07T13:54:35.229Z,47.24
2019-02-07T13:59:40.339Z,47.13
2019-02-07T14:05:01.902Z,47.55
2019-02-07T14:10:19.388Z,47.69
2019-02-07T14:15:33.037Z,47.62
2019-02-07T14:20:38.150Z,47.35
2019-02-07T14:25:48.829Z,47.36
2019-02-07T14:31:02.907Z,47.36
2019-02-07T14:36:21.788Z,47.32
2019-02-07T14:41:26.920Z,47.28
2019-02-07T14:46:32.209Z,47.22
2019-02-07T14:51:35.692Z,47.20
2019-02-07T14:56:39.268Z,47.15
2019-02-07T15:01:42.737Z,47.10
2019-02-07T15:06:46.220Z,47.06
2019-02-07T15:11:49.873Z,47.02
2019-02-07T15:16:53.361Z,46.96
2019-02-07T15:21:56.846Z,46.96
2019-02-07T15:27:00.331Z,46.95
2019-02-07T15:32:03.881Z,46.95
2019-02-07T15:37:07.440Z,47.12
2019-02-07T15:42:10.925Z,46.77
2019-02-07T15:47:14.409Z,46.77
2019-02-07T15:52:17.906Z,47.11
2019-02-07T15:57:22.073Z,47.11
2019-02-07T16:02:26.005Z,47.76
2019-02-07T16:07:29.489Z,48.76
2019-02-07T16:12:32.972Z,49.31
2019-02-07T16:17:36.530Z,49.09
2019-02-07T16:22:40.085Z,48.81
2019-02-07T16:27:43.738Z,48.63
2019-02-07T16:32:47.223Z,48.45
2019-02-07T16:37:51.352Z,48.33
2019-02-07T16:42:54.831Z,48.21
2019-02-07T16:47:58.313Z,48.13
2019-02-07T16:53:01.945Z,48.02
2019-02-07T16:58:06.366Z,47.95
2019-02-07T17:03:09.906Z,47.83
2019-02-07T17:08:13.389Z,47.78
2019-02-07T17:13:16.876Z,47.79
2019-02-07T17:18:20.433Z,47.95
2019-02-07T17:23:24.092Z,49.08
2019-02-07T17:28:27.972Z,49.41
2019-02-07T17:33:31.459Z,49.45
2019-02-07T17:38:35.024Z,49.63
2019-02-07T17:43:38.514Z,49.64
2019-02-07T17:48:42.008Z,49.46
2019-02-07T17:53:46.050Z,49.30
2019-02-07T17:58:49.544Z,49.03
2019-02-07T18:03:53.106Z,49.03
2019-02-07T18:08:56.599Z,49.07
2019-02-07T18:14:00.326Z,49.11
2019-02-07T18:19:03.883Z,49.01
2019-02-07T18:24:07.823Z,49.04
2019-02-07T18:29:11.866Z,49.12
2019-02-07T18:34:16.276Z,49.03
2019-02-07T18:39:20.311Z,48.99
2019-02-07T18:44:24.646Z,49.00
2019-02-07T18:49:28.981Z,49.01
2019-02-07T18:54:33.414Z,49.02
2019-02-07T18:59:37.441Z,49.02
2019-02-07T19:04:41.367Z,49.01
2019-02-07T19:09:46.228Z,48.99
2019-02-07T19:14:49.955Z,48.99
2019-02-07T19:19:53.791Z,48.96
2019-02-07T19:24:57.710Z,48.97
2019-02-07T19:30:01.548Z,48.95
2019-02-07T19:35:08.883Z,48.99
2019-02-07T19:40:18.266Z,48.98
2019-02-07T19:45:24.631Z,48.99
2019-02-07T19:50:29.494Z,48.94
2019-02-07T19:55:34.446Z,48.96
2019-02-07T20:00:39.421Z,48.95
2019-02-07T20:05:44.350Z,48.97
2019-02-07T20:10:48.791Z,48.94
2019-02-07T20:15:53.330Z,48.97
2019-02-07T20:20:57.355Z,48.96
2019-02-07T20:26:01.685Z,49.00
2019-02-07T20:31:06.020Z,48.97
2019-02-07T20:36:10.158Z,48.94
2019-02-07T20:41:14.286Z,48.98
2019-02-07T20:46:18.307Z,48.95
2019-02-07T20:51:22.168Z,48.99
2019-02-07T20:56:26.641Z,48.99
2019-02-07T21:01:30.629Z,49.00
2019-02-07T21:06:34.248Z,48.98
2019-02-07T21:11:37.873Z,48.97
2019-02-07T21:16:41.434Z,49.01
2019-02-07T21:21:45.063Z,48.97
2019-02-07T21:26:48.560Z,48.97
2019-02-07T21:31:52.333Z,48.97
2019-02-07T21:36:55.818Z,49.00
2019-02-07T21:41:59.305Z,49.01
2019-02-07T21:47:02.807Z,48.99
2019-02-07T21:52:06.293Z,48.97
2019-02-07T21:57:09.787Z,48.97
2019-02-07T22:02:13.281Z,48.98
2019-02-07T22:07:16.772Z,48.96
2019-02-07T22:12:20.538Z,48.98
2019-02-07T22:17:24.043Z,48.94
2019-02-07T22:22:27.524Z,48.96
2019-02-07T22:27:30.990Z,49.01
2019-02-07T22:32:34.461Z,48.98
2019-02-07T22:37:38.278Z,48.99
2019-02-07T22:42:47.755Z,48.98
2019-02-07T22:47:47.121Z,48.97
2019-02-07T22:52:56.771Z,48.96
2019-02-07T22:57:55.935Z,48.96
2019-02-07T23:02:59.774Z,48.94
2019-02-07T23:08:03.247Z,48.95
2019-02-07T23:13:07.765Z,48.95
2019-02-07T23:18:11.395Z,48.97
2019-02-07T23:23:14.867Z,48.96
2019-02-07T23:28:18.621Z,48.98
2019-02-07T23:33:22.098Z,48.99
2019-02-07T23:38:25.567Z,48.98
2019-02-07T23:43:29.105Z,48.98
2019-02-07T23:48:32.688Z,49.03
2019-02-07T23:53:36.630Z,49.00
2019-02-07T23:58:40.106Z,49.00
